sensor_id;sensor_type;location;lat;lon;timestamp;pressure;altitude;pressure_sealevel;temperature;humidity
9525;BME280;15940;48.734;9.112;2023-03-18T00:00:15;96127.69;;;10.27;52.28
9525;BME280;15940;48.734;9.112;2023-03-18T00:02:44;96128.19;;;10.25;52.88
9525;BME280;15940;48.734;9.112;2023-03-18T00:05:12;96130.88;;;10.25;52.56
9525;BME280;15940;48.734;9.112;2023-03-18T00:07:39;96129.88;;;10.17;52.64
9525;BME280;15940;48.734;9.112;2023-03-18T00:10:10;96131.34;;;10.13;52.50
9525;BME280;15940;48.734;9.112;2023-03-18T00:12:37;96119.56;;;10.05;52.25
9525;BME280;15940;48.734;9.112;2023-03-18T00:15:06;96115.13;;;10.01;52.47
9525;BME280;15940;48.734;9.112;2023-03-18T00:17:34;96120.28;;;9.99;52.30
9525;BME280;15940;48.734;9.112;2023-03-18T00:20:03;96117.56;;;9.94;52.83
9525;BME280;15940;48.734;9.112;2023-03-18T00:22:31;96131.13;;;9.88;53.17
9525;BME280;15940;48.734;9.112;2023-03-18T00:24:58;96133.56;;;9.81;53.30
9525;BME280;15940;48.734;9.112;2023-03-18T00:27:27;96141.69;;;9.69;53.66
9525;BME280;15940;48.734;9.112;2023-03-18T00:29:54;96144.38;;;9.64;53.90
9525;BME280;15940;48.734;9.112;2023-03-18T00:32:24;96150.00;;;9.66;53.49
9525;BME280;15940;48.734;9.112;2023-03-18T00:34:52;96150.28;;;9.73;53.29
9525;BME280;15940;48.734;9.112;2023-03-18T00:37:19;96139.22;;;9.83;53.87
9525;BME280;15940;48.734;9.112;2023-03-18T00:42:09;96157.19;;;9.97;53.76
9525;BME280;15940;48.734;9.112;2023-03-18T00:44:37;96155.94;;;10.03;52.99
9525;BME280;15940;48.734;9.112;2023-03-18T00:47:04;96146.59;;;10.10;52.01
9525;BME280;15940;48.734;9.112;2023-03-18T00:49:31;96157.44;;;10.16;52.20
9525;BME280;15940;48.734;9.112;2023-03-18T00:51:58;96156.44;;;10.13;52.44
9525;BME280;15940;48.734;9.112;2023-03-18T00:54:26;96156.44;;;10.13;52.19
9525;BME280;15940;48.734;9.112;2023-03-18T00:56:53;96156.44;;;10.13;51.72
9525;BME280;15940;48.734;9.112;2023-03-18T00:59:21;96163.34;;;10.20;51.74
9525;BME280;15940;48.734;9.112;2023-03-18T01:01:48;96166.31;;;10.22;52.01
9525;BME280;15940;48.734;9.112;2023-03-18T01:04:15;96158.41;;;10.18;52.36
9525;BME280;15940;48.734;9.112;2023-03-18T01:06:43;96160.88;;;10.11;52.20
9525;BME280;15940;48.734;9.112;2023-03-18T01:09:10;96163.09;;;10.12;52.01
9525;BME280;15940;48.734;9.112;2023-03-18T01:11:37;96164.56;;;10.13;53.05
9525;BME280;15940;48.734;9.112;2023-03-18T01:14:04;96165.06;;;10.12;52.81
9525;BME280;15940;48.734;9.112;2023-03-18T01:16:32;96163.09;;;10.18;51.87
9525;BME280;15940;48.734;9.112;2023-03-18T01:18:59;96168.25;;;10.21;52.16
9525;BME280;15940;48.734;9.112;2023-03-18T01:21:26;96153.75;;;10.19;52.85
9525;BME280;15940;48.734;9.112;2023-03-18T01:23:53;96159.19;;;10.24;52.44
9525;BME280;15940;48.734;9.112;2023-03-18T01:26:20;96166.56;;;10.24;51.83
9525;BME280;15940;48.734;9.112;2023-03-18T01:28:47;96160.16;;;10.27;52.01
9525;BME280;15940;48.734;9.112;2023-03-18T01:31:14;96156.69;;;10.32;51.70
9525;BME280;15940;48.734;9.112;2023-03-18T01:33:46;96155.97;;;10.37;51.22
9525;BME280;15940;48.734;9.112;2023-03-18T01:36:13;96146.84;;;10.40;52.47
9525;BME280;15940;48.734;9.112;2023-03-18T01:38:40;96144.38;;;10.48;51.74
9525;BME280;15940;48.734;9.112;2023-03-18T01:41:07;96143.16;;;10.49;51.58
9525;BME280;15940;48.734;9.112;2023-03-18T01:43:38;96140.44;;;10.49;51.14
9525;BME280;15940;48.734;9.112;2023-03-18T01:46:34;96143.66;;;10.47;51.48
9525;BME280;15940;48.734;9.112;2023-03-18T01:49:08;96148.06;;;10.50;50.81
9525;BME280;15940;48.734;9.112;2023-03-18T01:51:38;96144.38;;;10.48;51.20
9525;BME280;15940;48.734;9.112;2023-03-18T01:54:06;96151.53;;;10.45;51.59
9525;BME280;15940;48.734;9.112;2023-03-18T01:56:37;96142.41;;;10.48;51.68
9525;BME280;15940;48.734;9.112;2023-03-18T01:59:06;96145.16;;;10.43;52.00
9525;BME280;15940;48.734;9.112;2023-03-18T02:01:39;96143.66;;;10.47;50.97
9525;BME280;15940;48.734;9.112;2023-03-18T02:04:10;96138.97;;;10.48;51.67
9525;BME280;15940;48.734;9.112;2023-03-18T02:06:38;96134.78;;;10.52;51.04
9525;BME280;15940;48.734;9.112;2023-03-18T02:09:06;96136.72;;;10.57;51.36
9525;BME280;15940;48.734;9.112;2023-03-18T02:11:37;96137.00;;;10.54;51.77
9525;BME280;15940;48.734;9.112;2023-03-18T02:14:06;96136.75;;;10.52;51.49
9525;BME280;15940;48.734;9.112;2023-03-18T02:16:42;96138.00;;;10.45;51.82
9525;BME280;15940;48.734;9.112;2023-03-18T02:19:21;96143.38;;;10.51;50.97
9525;BME280;15940;48.734;9.112;2023-03-18T02:21:57;96147.09;;;10.48;51.06
9525;BME280;15940;48.734;9.112;2023-03-18T02:24:34;96157.91;;;10.48;50.86
9525;BME280;15940;48.734;9.112;2023-03-18T02:27:16;96152.25;;;10.46;51.48
9525;BME280;15940;48.734;9.112;2023-03-18T02:29:43;96149.31;;;10.44;51.63
9525;BME280;15940;48.734;9.112;2023-03-18T02:32:11;96147.84;;;10.37;51.68
9525;BME280;15940;48.734;9.112;2023-03-18T02:34:41;96153.03;;;10.35;52.16
9525;BME280;15940;48.734;9.112;2023-03-18T02:37:09;96153.03;;;10.35;52.13
9525;BME280;15940;48.734;9.112;2023-03-18T02:39:37;96156.72;;;10.26;52.19
9525;BME280;15940;48.734;9.112;2023-03-18T02:42:05;96155.75;;;10.24;51.87
9525;BME280;15940;48.734;9.112;2023-03-18T02:44:38;96148.81;;;10.17;52.06
9525;BME280;15940;48.734;9.112;2023-03-18T02:47:10;96157.91;;;10.20;52.51
9525;BME280;15940;48.734;9.112;2023-03-18T02:49:39;96161.13;;;10.18;52.20
9525;BME280;15940;48.734;9.112;2023-03-18T02:52:07;96159.66;;;10.17;52.96
9525;BME280;15940;48.734;9.112;2023-03-18T02:54:34;96155.97;;;10.15;52.89
9525;BME280;15940;48.734;9.112;2023-03-18T02:57:02;96143.19;;;10.15;52.34
9525;BME280;15940;48.734;9.112;2023-03-18T02:59:28;96148.31;;;10.13;52.97
9525;BME280;15940;48.734;9.112;2023-03-18T03:01:58;96150.06;;;10.11;52.72
9525;BME280;15940;48.734;9.112;2023-03-18T03:04:25;96152.50;;;10.09;53.03
9525;BME280;15940;48.734;9.112;2023-03-18T03:06:53;96159.41;;;9.98;53.62
9525;BME280;15940;48.734;9.112;2023-03-18T03:09:21;96164.81;;;9.93;54.14
9525;BME280;15940;48.734;9.112;2023-03-18T03:11:49;96155.22;;;9.81;54.57
9525;BME280;15940;48.734;9.112;2023-03-18T03:14:16;96158.66;;;9.81;53.50
9525;BME280;15940;48.734;9.112;2023-03-18T03:16:43;96163.81;;;9.90;53.61
9525;BME280;15940;48.734;9.112;2023-03-18T03:19:12;96167.75;;;9.89;54.32
9525;BME280;15940;48.734;9.112;2023-03-18T03:21:39;96168.00;;;9.86;54.43
9525;BME280;15940;48.734;9.112;2023-03-18T03:24:07;96172.91;;;9.82;53.94
9525;BME280;15940;48.734;9.112;2023-03-18T03:26:35;96168.97;;;9.71;54.54
9525;BME280;15940;48.734;9.112;2023-03-18T03:29:03;96167.72;;;9.72;54.04
9525;BME280;15940;48.734;9.112;2023-03-18T03:31:31;96165.28;;;9.74;54.24
9525;BME280;15940;48.734;9.112;2023-03-18T03:33:59;96171.66;;;9.71;54.43
9525;BME280;15940;48.734;9.112;2023-03-18T03:36:27;96176.09;;;9.74;54.12
9525;BME280;15940;48.734;9.112;2023-03-18T03:38:54;96181.28;;;9.78;53.94
9525;BME280;15940;48.734;9.112;2023-03-18T03:41:21;96180.03;;;9.79;53.69
9525;BME280;15940;48.734;9.112;2023-03-18T03:43:48;96179.78;;;9.71;54.31
9525;BME280;15940;48.734;9.112;2023-03-18T03:46:15;96184.94;;;9.69;54.40
9525;BME280;15940;48.734;9.112;2023-03-18T03:48:42;96180.78;;;9.68;54.23
9525;BME280;15940;48.734;9.112;2023-03-18T03:51:09;96180.50;;;9.66;54.40
9525;BME280;15940;48.734;9.112;2023-03-18T03:53:38;96191.31;;;9.66;54.32
9525;BME280;15940;48.734;9.112;2023-03-18T03:56:06;96187.88;;;9.60;54.47
9525;BME280;15940;48.734;9.112;2023-03-18T03:58:34;96181.22;;;9.56;53.75
9525;BME280;15940;48.734;9.112;2023-03-18T04:01:02;96178.28;;;9.54;54.91
9525;BME280;15940;48.734;9.112;2023-03-18T04:03:31;96179.97;;;9.45;54.76
9525;BME280;15940;48.734;9.112;2023-03-18T04:05:58;96190.03;;;9.39;54.85
9525;BME280;15940;48.734;9.112;2023-03-18T04:08:25;96175.50;;;9.37;54.75
9525;BME280;15940;48.734;9.112;2023-03-18T04:10:54;96183.13;;;9.33;55.29
9525;BME280;15940;48.734;9.112;2023-03-18T04:13:21;96180.91;;;9.31;54.96
9525;BME280;15940;48.734;9.112;2023-03-18T04:15:48;96176.75;;;9.30;55.03
9525;BME280;15940;48.734;9.112;2023-03-18T04:18:16;96179.94;;;9.29;54.96
9525;BME280;15940;48.734;9.112;2023-03-18T04:20:43;96182.59;;;9.23;55.63
9525;BME280;15940;48.734;9.112;2023-03-18T04:23:11;96187.97;;;9.18;55.53
9525;BME280;15940;48.734;9.112;2023-03-18T04:25:38;96187.72;;;9.10;56.17
9525;BME280;15940;48.734;9.112;2023-03-18T04:28:07;96185.47;;;9.03;56.07
9525;BME280;15940;48.734;9.112;2023-03-18T04:30:34;96196.97;;;8.98;56.39
9525;BME280;15940;48.734;9.112;2023-03-18T04:33:01;96193.50;;;8.86;56.43
9525;BME280;15940;48.734;9.112;2023-03-18T04:35:28;96191.78;;;8.83;56.88
9525;BME280;15940;48.734;9.112;2023-03-18T04:37:55;96181.91;;;8.80;57.00
9525;BME280;15940;48.734;9.112;2023-03-18T04:40:23;96194.19;;;8.75;57.76
9525;BME280;15940;48.734;9.112;2023-03-18T04:42:50;96198.34;;;8.76;56.80
9525;BME280;15940;48.734;9.112;2023-03-18T04:45:19;96191.72;;;8.72;57.43
9525;BME280;15940;48.734;9.112;2023-03-18T04:47:46;96200.50;;;8.67;57.47
9525;BME280;15940;48.734;9.112;2023-03-18T04:50:14;96206.38;;;8.65;57.12
9525;BME280;15940;48.734;9.112;2023-03-18T04:52:42;96204.19;;;8.64;57.99
9525;BME280;15940;48.734;9.112;2023-03-18T04:55:11;96194.50;;;8.51;57.53
9525;BME280;15940;48.734;9.112;2023-03-18T04:57:39;96201.63;;;8.49;57.59
9525;BME280;15940;48.734;9.112;2023-03-18T05:00:11;96195.66;;;8.39;57.45
9525;BME280;15940;48.734;9.112;2023-03-18T05:02:41;96202.19;;;8.32;57.91
9525;BME280;15940;48.734;9.112;2023-03-18T05:05:09;96197.94;;;8.20;58.93
9525;BME280;15940;48.734;9.112;2023-03-18T05:07:36;96200.31;;;8.07;59.02
9525;BME280;15940;48.734;9.112;2023-03-18T05:10:05;96197.50;;;7.96;58.89
9525;BME280;15940;48.734;9.112;2023-03-18T05:12:32;96199.09;;;7.82;59.49
9525;BME280;15940;48.734;9.112;2023-03-18T05:15:00;96197.78;;;7.72;60.05
9525;BME280;15940;48.734;9.112;2023-03-18T05:17:27;96201.09;;;7.61;60.57
9525;BME280;15940;48.734;9.112;2023-03-18T05:19:55;96201.00;;;7.50;60.33
9525;BME280;15940;48.734;9.112;2023-03-18T05:22:23;96200.09;;;7.38;61.80
9525;BME280;15940;48.734;9.112;2023-03-18T05:24:51;96200.72;;;7.28;61.75
9525;BME280;15940;48.734;9.112;2023-03-18T05:27:19;96197.03;;;7.25;62.26
9525;BME280;15940;48.734;9.112;2023-03-18T05:29:47;96210.75;;;7.27;62.14
9525;BME280;15940;48.734;9.112;2023-03-18T05:32:14;96206.94;;;7.34;62.39
9525;BME280;15940;48.734;9.112;2023-03-18T05:34:42;96207.75;;;7.40;61.48
9525;BME280;15940;48.734;9.112;2023-03-18T05:37:12;96204.34;;;7.45;61.01
9525;BME280;15940;48.734;9.112;2023-03-18T05:39:40;96203.69;;;7.50;61.37
9525;BME280;15940;48.734;9.112;2023-03-18T05:42:08;96208.72;;;7.63;60.77
9525;BME280;15940;48.734;9.112;2023-03-18T05:44:35;96210.03;;;7.73;60.11
9525;BME280;15940;48.734;9.112;2023-03-18T05:47:06;96208.78;;;7.68;60.49
9525;BME280;15940;48.734;9.112;2023-03-18T05:49:33;96209.69;;;7.65;59.82
9525;BME280;15940;48.734;9.112;2023-03-18T05:52:01;96210.19;;;7.64;60.36
9525;BME280;15940;48.734;9.112;2023-03-18T05:54:29;96208.91;;;7.59;60.66
9525;BME280;15940;48.734;9.112;2023-03-18T05:56:56;96206.91;;;7.54;60.63
9525;BME280;15940;48.734;9.112;2023-03-18T05:59:24;96208.59;;;7.52;60.58
9525;BME280;15940;48.734;9.112;2023-03-18T06:01:51;96207.13;;;7.51;60.74
9525;BME280;15940;48.734;9.112;2023-03-18T06:04:19;96208.03;;;7.48;60.99
9525;BME280;15940;48.734;9.112;2023-03-18T06:06:46;96205.56;;;7.44;61.06
9525;BME280;15940;48.734;9.112;2023-03-18T06:09:14;96207.53;;;7.43;60.84
9525;BME280;15940;48.734;9.112;2023-03-18T06:11:45;96206.03;;;7.42;61.38
9525;BME280;15940;48.734;9.112;2023-03-18T06:14:12;96207.25;;;7.41;61.44
9525;BME280;15940;48.734;9.112;2023-03-18T06:16:40;96210.69;;;7.42;61.70
9525;BME280;15940;48.734;9.112;2023-03-18T06:19:08;96211.91;;;7.41;61.53
9525;BME280;15940;48.734;9.112;2023-03-18T06:21:36;96221.25;;;7.45;61.26
9525;BME280;15940;48.734;9.112;2023-03-18T06:24:04;96213.50;;;7.53;61.25
9525;BME280;15940;48.734;9.112;2023-03-18T06:26:34;96215.53;;;7.58;61.49
9525;BME280;15940;48.734;9.112;2023-03-18T06:29:02;96225.94;;;7.71;61.32
9525;BME280;15940;48.734;9.112;2023-03-18T06:31:29;96226.41;;;7.95;59.58
9525;BME280;15940;48.734;9.112;2023-03-18T06:33:56;96221.91;;;8.13;58.88
9525;BME280;15940;48.734;9.112;2023-03-18T06:36:24;96218.22;;;8.36;58.44
9525;BME280;15940;48.734;9.112;2023-03-18T06:38:51;96226.38;;;8.47;57.80
9525;BME280;15940;48.734;9.112;2023-03-18T06:41:18;96219.84;;;8.59;57.56
9525;BME280;15940;48.734;9.112;2023-03-18T06:43:45;96219.16;;;8.65;58.48
9525;BME280;15940;48.734;9.112;2023-03-18T06:46:16;96217.19;;;8.65;58.07
9525;BME280;15940;48.734;9.112;2023-03-18T06:48:43;96219.91;;;8.71;57.64
9525;BME280;15940;48.734;9.112;2023-03-18T06:51:11;96222.41;;;8.80;57.31
9525;BME280;15940;48.734;9.112;2023-03-18T06:53:38;96223.44;;;8.88;57.34
9525;BME280;15940;48.734;9.112;2023-03-18T06:56:06;96221.28;;;8.98;57.26
9525;BME280;15940;48.734;9.112;2023-03-18T06:58:34;96214.69;;;9.04;56.48
9525;BME280;15940;48.734;9.112;2023-03-18T07:01:01;96219.69;;;9.23;56.22
9525;BME280;15940;48.734;9.112;2023-03-18T07:03:29;96224.69;;;9.47;55.25
9525;BME280;15940;48.734;9.112;2023-03-18T07:05:57;96216.91;;;9.71;54.59
9525;BME280;15940;48.734;9.112;2023-03-18T07:08:24;96224.81;;;10.02;53.99
9525;BME280;15940;48.734;9.112;2023-03-18T07:10:51;96232.25;;;10.30;52.46
9525;BME280;15940;48.734;9.112;2023-03-18T07:13:19;96234.47;;;10.37;53.10
9525;BME280;15940;48.734;9.112;2023-03-18T07:15:46;96229.78;;;10.60;52.34
9525;BME280;15940;48.734;9.112;2023-03-18T07:18:13;96228.56;;;10.72;52.21
9525;BME280;15940;48.734;9.112;2023-03-18T07:20:41;96228.03;;;10.91;51.29
9525;BME280;15940;48.734;9.112;2023-03-18T07:23:09;96227.50;;;11.09;50.01
9525;BME280;15940;48.734;9.112;2023-03-18T07:25:36;96224.66;;;11.37;48.62
9525;BME280;15940;48.734;9.112;2023-03-18T07:28:03;96236.44;;;11.56;49.21
9525;BME280;15940;48.734;9.112;2023-03-18T07:30:30;96242.25;;;11.77;49.49
9525;BME280;15940;48.734;9.112;2023-03-18T07:32:58;96246.09;;;11.98;47.95
9525;BME280;15940;48.734;9.112;2023-03-18T07:35:25;96244.16;;;12.29;47.82
9525;BME280;15940;48.734;9.112;2023-03-18T07:37:54;96243.50;;;12.77;46.25
9525;BME280;15940;48.734;9.112;2023-03-18T07:40:22;96243.25;;;13.05;45.63
9525;BME280;15940;48.734;9.112;2023-03-18T07:42:49;96252.53;;;13.40;44.91
9525;BME280;15940;48.734;9.112;2023-03-18T07:45:18;96256.19;;;13.86;43.14
9525;BME280;15940;48.734;9.112;2023-03-18T07:47:45;96257.53;;;14.30;43.14
9525;BME280;15940;48.734;9.112;2023-03-18T07:50:12;96252.19;;;14.56;42.85
9525;BME280;15940;48.734;9.112;2023-03-18T07:52:39;96246.72;;;14.89;41.54
9525;BME280;15940;48.734;9.112;2023-03-18T07:55:08;96251.13;;;15.05;40.85
9525;BME280;15940;48.734;9.112;2023-03-18T07:57:36;96250.63;;;15.20;40.45
9525;BME280;15940;48.734;9.112;2023-03-18T08:00:04;96242.63;;;15.35;39.94
9525;BME280;15940;48.734;9.112;2023-03-18T08:02:32;96250.31;;;15.10;39.79
9525;BME280;15940;48.734;9.112;2023-03-18T08:05:00;96250.50;;;15.12;39.43
9525;BME280;15940;48.734;9.112;2023-03-18T08:07:28;96251.66;;;15.43;40.81
9525;BME280;15940;48.734;9.112;2023-03-18T08:09:55;96250.47;;;15.78;39.60
9525;BME280;15940;48.734;9.112;2023-03-18T08:12:23;96260.13;;;15.92;37.03
9525;BME280;15940;48.734;9.112;2023-03-18T08:14:50;96261.91;;;15.90;39.21
9525;BME280;15940;48.734;9.112;2023-03-18T08:17:17;96258.28;;;15.74;40.34
9525;BME280;15940;48.734;9.112;2023-03-18T08:19:44;96258.63;;;16.05;38.90
9525;BME280;15940;48.734;9.112;2023-03-18T08:22:12;96262.38;;;16.36;38.15
9525;BME280;15940;48.734;9.112;2023-03-18T08:24:39;96251.25;;;16.54;38.16
9525;BME280;15940;48.734;9.112;2023-03-18T08:27:07;96264.03;;;16.73;38.90
9525;BME280;15940;48.734;9.112;2023-03-18T08:29:36;96264.44;;;17.05;36.79
9525;BME280;15940;48.734;9.112;2023-03-18T08:32:03;96266.41;;;17.54;36.75
9525;BME280;15940;48.734;9.112;2023-03-18T08:34:30;96263.78;;;17.77;35.28
9525;BME280;15940;48.734;9.112;2023-03-18T08:36:57;96265.81;;;17.84;35.15
9525;BME280;15940;48.734;9.112;2023-03-18T08:39:24;96267.97;;;18.30;36.02
9525;BME280;15940;48.734;9.112;2023-03-18T08:41:51;96258.59;;;18.17;33.43
9525;BME280;15940;48.734;9.112;2023-03-18T08:44:18;96257.06;;;17.86;35.14
9525;BME280;15940;48.734;9.112;2023-03-18T08:46:46;96259.09;;;17.93;35.84
9525;BME280;15940;48.734;9.112;2023-03-18T08:49:13;96256.47;;;17.80;36.17
9525;BME280;15940;48.734;9.112;2023-03-18T08:51:40;96261.38;;;18.33;34.94
9525;BME280;15940;48.734;9.112;2023-03-18T08:54:07;96250.50;;;18.78;35.66
9525;BME280;15940;48.734;9.112;2023-03-18T08:56:34;96248.44;;;18.56;33.98
9525;BME280;15940;48.734;9.112;2023-03-18T08:59:01;96243.50;;;18.62;33.57
9525;BME280;15940;48.734;9.112;2023-03-18T09:01:28;96248.66;;;18.81;32.61
9525;BME280;15940;48.734;9.112;2023-03-18T09:03:56;96248.41;;;18.33;32.46
9525;BME280;15940;48.734;9.112;2023-03-18T09:06:24;96252.22;;;18.22;34.62
9525;BME280;15940;48.734;9.112;2023-03-18T09:08:51;96251.78;;;18.70;33.96
9525;BME280;15940;48.734;9.112;2023-03-18T09:11:18;96238.75;;;19.08;33.75
9525;BME280;15940;48.734;9.112;2023-03-18T09:13:45;96233.94;;;19.32;31.54
9525;BME280;15940;48.734;9.112;2023-03-18T09:16:12;96235.47;;;18.95;33.46
9525;BME280;15940;48.734;9.112;2023-03-18T09:18:39;96244.34;;;19.41;33.72
9525;BME280;15940;48.734;9.112;2023-03-18T09:21:08;96234.81;;;19.42;32.38
9525;BME280;15940;48.734;9.112;2023-03-18T09:23:34;96241.00;;;19.73;32.03
9525;BME280;15940;48.734;9.112;2023-03-18T09:26:01;96229.97;;;20.13;32.22
9525;BME280;15940;48.734;9.112;2023-03-18T09:28:29;96225.09;;;20.04;30.57
9525;BME280;15940;48.734;9.112;2023-03-18T09:30:57;96227.03;;;19.79;32.42
9525;BME280;15940;48.734;9.112;2023-03-18T09:33:24;96231.28;;;20.12;32.95
9525;BME280;15940;48.734;9.112;2023-03-18T09:35:51;96231.88;;;20.03;32.28
9525;BME280;15940;48.734;9.112;2023-03-18T09:38:20;96228.59;;;19.97;32.48
9525;BME280;15940;48.734;9.112;2023-03-18T09:40:58;96225.91;;;20.22;30.78
9525;BME280;15940;48.734;9.112;2023-03-18T09:43:43;96225.50;;;21.00;31.44
9525;BME280;15940;48.734;9.112;2023-03-18T09:48:50;96231.53;;;21.06;33.62
9525;BME280;15940;48.734;9.112;2023-03-18T09:51:35;96219.41;;;21.27;33.36
9525;BME280;15940;48.734;9.112;2023-03-18T09:54:14;96218.34;;;20.80;29.86
9525;BME280;15940;48.734;9.112;2023-03-18T09:56:44;96211.59;;;19.91;31.40
9525;BME280;15940;48.734;9.112;2023-03-18T09:59:18;96217.50;;;19.80;31.75
9525;BME280;15940;48.734;9.112;2023-03-18T10:01:53;96212.47;;;20.01;32.80
9525;BME280;15940;48.734;9.112;2023-03-18T10:04:25;96215.69;;;19.75;32.39
9525;BME280;15940;48.734;9.112;2023-03-18T10:06:58;96209.47;;;19.74;32.13
9525;BME280;15940;48.734;9.112;2023-03-18T10:09:29;96209.72;;;19.53;33.29
9525;BME280;15940;48.734;9.112;2023-03-18T10:12:04;96213.94;;;19.54;31.97
9525;BME280;15940;48.734;9.112;2023-03-18T10:14:38;96214.88;;;19.41;31.39
9525;BME280;15940;48.734;9.112;2023-03-18T10:17:15;96213.88;;;18.91;31.80
9525;BME280;15940;48.734;9.112;2023-03-18T10:19:50;96208.75;;;19.03;32.86
9525;BME280;15940;48.734;9.112;2023-03-18T10:22:49;96217.63;;;19.41;33.16
9525;BME280;15940;48.734;9.112;2023-03-18T10:25:24;96203.31;;;19.51;32.67
9525;BME280;15940;48.734;9.112;2023-03-18T10:30:57;96203.69;;;19.62;31.84
9525;BME280;15940;48.734;9.112;2023-03-18T10:33:36;96200.69;;;19.68;32.48
9525;BME280;15940;48.734;9.112;2023-03-18T10:36:13;96212.00;;;19.24;32.61
9525;BME280;15940;48.734;9.112;2023-03-18T10:38:46;96217.75;;;18.88;33.35
9525;BME280;15940;48.734;9.112;2023-03-18T10:41:18;96214.44;;;19.05;32.90
9525;BME280;15940;48.734;9.112;2023-03-18T10:43:49;96211.97;;;19.32;33.37
9525;BME280;15940;48.734;9.112;2023-03-18T10:46:19;96210.50;;;19.31;32.22
9525;BME280;15940;48.734;9.112;2023-03-18T10:48:51;96207.44;;;19.19;34.28
9525;BME280;15940;48.734;9.112;2023-03-18T10:51:25;96196.84;;;19.16;34.00
9525;BME280;15940;48.734;9.112;2023-03-18T10:53:59;96203.06;;;19.01;34.13
9525;BME280;15940;48.734;9.112;2023-03-18T10:56:28;96199.25;;;18.81;35.81
9525;BME280;15940;48.734;9.112;2023-03-18T10:58:55;96203.84;;;18.86;34.91
9525;BME280;15940;48.734;9.112;2023-03-18T11:01:24;96196.16;;;18.39;34.33
9525;BME280;15940;48.734;9.112;2023-03-18T11:03:59;96196.50;;;18.43;32.17
9525;BME280;15940;48.734;9.112;2023-03-18T11:06:37;96192.66;;;18.61;32.82
9525;BME280;15940;48.734;9.112;2023-03-18T11:09:09;96197.94;;;19.12;31.61
9525;BME280;15940;48.734;9.112;2023-03-18T11:11:39;96195.56;;;19.09;29.10
9525;BME280;15940;48.734;9.112;2023-03-18T11:14:14;96189.16;;;19.06;29.25
9525;BME280;15940;48.734;9.112;2023-03-18T11:16:46;96186.91;;;19.28;29.60
9525;BME280;15940;48.734;9.112;2023-03-18T11:19:29;96188.19;;;19.27;29.99
9525;BME280;15940;48.734;9.112;2023-03-18T11:22:18;96175.84;;;18.95;29.20
9525;BME280;15940;48.734;9.112;2023-03-18T11:24:45;96177.25;;;19.04;30.37
9525;BME280;15940;48.734;9.112;2023-03-18T11:27:36;96176.91;;;19.07;30.50
9525;BME280;15940;48.734;9.112;2023-03-18T11:30:17;96172.22;;;19.40;31.50
9525;BME280;15940;48.734;9.112;2023-03-18T11:32:54;96173.41;;;19.15;31.01
9525;BME280;15940;48.734;9.112;2023-03-18T11:35:24;96165.22;;;19.55;29.72
9525;BME280;15940;48.734;9.112;2023-03-18T11:38:01;96162.00;;;19.81;31.88
9525;BME280;15940;48.734;9.112;2023-03-18T11:40:29;96165.59;;;19.91;31.52
9525;BME280;15940;48.734;9.112;2023-03-18T11:42:59;96155.25;;;19.75;31.40
9525;BME280;15940;48.734;9.112;2023-03-18T11:45:40;96160.34;;;19.78;31.36
9525;BME280;15940;48.734;9.112;2023-03-18T11:48:15;96154.41;;;19.89;31.30
9525;BME280;15940;48.734;9.112;2023-03-18T11:50:59;96155.56;;;20.11;30.96
9525;BME280;15940;48.734;9.112;2023-03-18T11:53:44;96153.56;;;20.12;30.51
9525;BME280;15940;48.734;9.112;2023-03-18T11:56:23;96152.63;;;19.84;31.34
9525;BME280;15940;48.734;9.112;2023-03-18T11:59:09;96154.25;;;19.87;30.36
9525;BME280;15940;48.734;9.112;2023-03-18T12:01:46;96148.59;;;19.85;32.18
9525;BME280;15940;48.734;9.112;2023-03-18T12:04:54;96146.69;;;19.95;30.62
9525;BME280;15940;48.734;9.112;2023-03-18T12:07:44;96154.84;;;20.11;30.78
9525;BME280;15940;48.734;9.112;2023-03-18T12:10:22;96146.19;;;20.14;30.95
9525;BME280;15940;48.734;9.112;2023-03-18T12:13:10;96142.22;;;20.33;31.29
9525;BME280;15940;48.734;9.112;2023-03-18T12:15:46;96139.06;;;20.36;31.38
9525;BME280;15940;48.734;9.112;2023-03-18T12:18:39;96140.75;;;20.07;30.55
9525;BME280;15940;48.734;9.112;2023-03-18T12:21:34;96129.34;;;20.35;32.20
9525;BME280;15940;48.734;9.112;2023-03-18T12:24:32;96129.00;;;20.56;31.29
9525;BME280;15940;48.734;9.112;2023-03-18T12:27:16;96124.03;;;20.12;31.65
9525;BME280;15940;48.734;9.112;2023-03-18T12:32:44;96121.03;;;20.68;32.29
9525;BME280;15940;48.734;9.112;2023-03-18T12:35:48;96128.56;;;20.67;30.63
9525;BME280;15940;48.734;9.112;2023-03-18T12:39:00;96116.41;;;20.70;31.39
9525;BME280;15940;48.734;9.112;2023-03-18T12:41:37;96111.88;;;21.17;30.66
9525;BME280;15940;48.734;9.112;2023-03-18T12:44:23;96117.88;;;21.23;30.57
9525;BME280;15940;48.734;9.112;2023-03-18T12:46:57;96117.31;;;21.42;28.46
9525;BME280;15940;48.734;9.112;2023-03-18T12:49:31;96113.19;;;21.33;29.52
9525;BME280;15940;48.734;9.112;2023-03-18T12:52:04;96105.94;;;21.21;28.11
9525;BME280;15940;48.734;9.112;2023-03-18T12:54:37;96112.78;;;20.85;29.09
9525;BME280;15940;48.734;9.112;2023-03-18T12:57:12;96106.94;;;20.81;31.45
9525;BME280;15940;48.734;9.112;2023-03-18T12:59:44;96102.50;;;20.86;30.51
9525;BME280;15940;48.734;9.112;2023-03-18T13:02:39;96102.00;;;20.62;29.27
9525;BME280;15940;48.734;9.112;2023-03-18T13:05:20;96100.31;;;20.67;29.47
9525;BME280;15940;48.734;9.112;2023-03-18T13:08:04;96095.56;;;20.85;30.83
9525;BME280;15940;48.734;9.112;2023-03-18T13:10:36;96093.44;;;20.75;29.13
9525;BME280;15940;48.734;9.112;2023-03-18T13:13:07;96093.13;;;20.29;30.23
9525;BME280;15940;48.734;9.112;2023-03-18T13:15:40;96089.66;;;20.46;29.45
9525;BME280;15940;48.734;9.112;2023-03-18T13:18:15;96095.78;;;20.37;29.71
9525;BME280;15940;48.734;9.112;2023-03-18T13:20:45;96091.16;;;20.47;29.87
9525;BME280;15940;48.734;9.112;2023-03-18T13:23:23;96086.47;;;20.57;29.13
9525;BME280;15940;48.734;9.112;2023-03-18T13:26:05;96087.56;;;20.54;26.70
9525;BME280;15940;48.734;9.112;2023-03-18T13:28:43;96084.22;;;20.38;27.97
9525;BME280;15940;48.734;9.112;2023-03-18T13:31:28;96089.06;;;20.30;28.46
9525;BME280;15940;48.734;9.112;2023-03-18T13:34:32;96101.94;;;20.03;30.18
9525;BME280;15940;48.734;9.112;2023-03-18T13:37:25;96097.69;;;19.44;29.41
9525;BME280;15940;48.734;9.112;2023-03-18T13:40:17;96087.94;;;19.10;28.91
9525;BME280;15940;48.734;9.112;2023-03-18T13:42:50;96090.94;;;18.90;29.55
9525;BME280;15940;48.734;9.112;2023-03-18T13:45:26;96090.81;;;18.72;28.62